sensor_id;sensor_type;location;lat;lon;timestamp;temperature;humidity
70534;SHT31;58088;51.186;17.130;2022-12-11T00:02:04;1.81;78.27
70534;SHT31;58088;51.186;17.130;2022-12-11T00:04:31;1.81;78.23
70534;SHT31;58088;51.186;17.130;2022-12-11T00:06:57;1.83;78.29
70534;SHT31;58088;51.186;17.130;2022-12-11T00:09:23;1.85;78.30
70534;SHT31;58088;51.186;17.130;2022-12-11T00:11:49;1.86;78.29
70534;SHT31;58088;51.186;17.130;2022-12-11T00:14:16;1.86;78.23
70534;SHT31;58088;51.186;17.130;2022-12-11T00:16:43;1.85;78.21
70534;SHT31;58088;51.186;17.130;2022-12-11T00:19:09;1.85;78.18
70534;SHT31;58088;51.186;17.130;2022-12-11T00:21:35;1.84;78.14
70534;SHT31;58088;51.186;17.130;2022-12-11T00:24:02;1.82;78.17
70534;SHT31;58088;51.186;17.130;2022-12-11T00:26:28;1.85;78.17
70534;SHT31;58088;51.186;17.130;2022-12-11T00:28:54;1.84;78.18
70534;SHT31;58088;51.186;17.130;2022-12-11T00:31:22;1.84;78.16
70534;SHT31;58088;51.186;17.130;2022-12-11T00:33:48;1.81;78.16
70534;SHT31;58088;51.186;17.130;2022-12-11T00:36:17;1.81;78.15
70534;SHT31;58088;51.186;17.130;2022-12-11T00:38:46;1.79;78.10
70534;SHT31;58088;51.186;17.130;2022-12-11T00:41:14;1.78;78.18
70534;SHT31;58088;51.186;17.130;2022-12-11T00:43:42;1.79;78.15
70534;SHT31;58088;51.186;17.130;2022-12-11T00:46:08;1.81;78.10
70534;SHT31;58088;51.186;17.130;2022-12-11T00:48:35;1.82;78.10
70534;SHT31;58088;51.186;17.130;2022-12-11T00:51:02;1.80;78.10
70534;SHT31;58088;51.186;17.130;2022-12-11T00:53:28;1.79;78.10
70534;SHT31;58088;51.186;17.130;2022-12-11T00:55:54;1.81;78.10
70534;SHT31;58088;51.186;17.130;2022-12-11T00:58:20;1.83;78.10
70534;SHT31;58088;51.186;17.130;2022-12-11T01:00:47;1.84;78.10
70534;SHT31;58088;51.186;17.130;2022-12-11T01:03:15;1.82;78.10
70534;SHT31;58088;51.186;17.130;2022-12-11T01:05:49;1.80;78.10
70534;SHT31;58088;51.186;17.130;2022-12-11T01:08:18;1.78;78.10
70534;SHT31;58088;51.186;17.130;2022-12-11T01:10:45;1.77;78.11
70534;SHT31;58088;51.186;17.130;2022-12-11T01:13:12;1.78;78.11
70534;SHT31;58088;51.186;17.130;2022-12-11T01:15:39;1.77;78.10
70534;SHT31;58088;51.186;17.130;2022-12-11T01:18:09;1.75;78.10
70534;SHT31;58088;51.186;17.130;2022-12-11T01:20:37;1.75;78.19
70534;SHT31;58088;51.186;17.130;2022-12-11T01:23:07;1.77;78.20
70534;SHT31;58088;51.186;17.130;2022-12-11T01:25:37;1.77;78.20
70534;SHT31;58088;51.186;17.130;2022-12-11T01:28:04;1.77;78.19
70534;SHT31;58088;51.186;17.130;2022-12-11T01:30:31;1.77;78.20
70534;SHT31;58088;51.186;17.130;2022-12-11T01:32:57;1.76;78.20
70534;SHT31;58088;51.186;17.130;2022-12-11T01:35:24;1.76;78.21
70534;SHT31;58088;51.186;17.130;2022-12-11T01:37:51;1.76;78.24
70534;SHT31;58088;51.186;17.130;2022-12-11T01:40:18;1.75;78.26
70534;SHT31;58088;51.186;17.130;2022-12-11T01:42:46;1.72;78.23
70534;SHT31;58088;51.186;17.130;2022-12-11T01:50:54;1.69;78.30
70534;SHT31;58088;51.186;17.130;2022-12-11T01:53:24;1.68;78.31
70534;SHT31;58088;51.186;17.130;2022-12-11T01:55:59;1.69;78.30
70534;SHT31;58088;51.186;17.130;2022-12-11T01:58:31;1.71;78.29
70534;SHT31;58088;51.186;17.130;2022-12-11T02:04:44;1.70;78.20
70534;SHT31;58088;51.186;17.130;2022-12-11T02:07:13;1.69;78.20
70534;SHT31;58088;51.186;17.130;2022-12-11T02:09:41;1.67;78.20
70534;SHT31;58088;51.186;17.130;2022-12-11T02:29:51;1.67;78.11
70534;SHT31;58088;51.186;17.130;2022-12-11T02:32:42;1.69;78.14
70534;SHT31;58088;51.186;17.130;2022-12-11T02:35:39;1.71;78.07
70534;SHT31;58088;51.186;17.130;2022-12-11T02:38:16;1.74;78.02
70534;SHT31;58088;51.186;17.130;2022-12-11T02:40:50;1.74;78.00
70534;SHT31;58088;51.186;17.130;2022-12-11T02:43:20;1.74;77.94
70534;SHT31;58088;51.186;17.130;2022-12-11T02:45:48;1.72;77.84
70534;SHT31;58088;51.186;17.130;2022-12-11T02:48:18;1.72;77.82
70534;SHT31;58088;51.186;17.130;2022-12-11T02:50:49;1.72;77.89
70534;SHT31;58088;51.186;17.130;2022-12-11T02:53:23;1.72;77.86
70534;SHT31;58088;51.186;17.130;2022-12-11T02:56:05;1.73;77.88
70534;SHT31;58088;51.186;17.130;2022-12-11T02:58:41;1.71;77.83
70534;SHT31;58088;51.186;17.130;2022-12-11T03:01:14;1.69;77.81
70534;SHT31;58088;51.186;17.130;2022-12-11T03:03:41;1.70;77.80
70534;SHT31;58088;51.186;17.130;2022-12-11T03:06:08;1.69;77.80
70534;SHT31;58088;51.186;17.130;2022-12-11T03:08:40;1.69;77.80
70534;SHT31;58088;51.186;17.130;2022-12-11T03:11:09;1.69;77.80
70534;SHT31;58088;51.186;17.130;2022-12-11T03:13:37;1.67;77.80
70534;SHT31;58088;51.186;17.130;2022-12-11T03:21:54;1.73;77.88
70534;SHT31;58088;51.186;17.130;2022-12-11T03:24:59;1.75;77.80
70534;SHT31;58088;51.186;17.130;2022-12-11T03:28:09;1.71;77.81
70534;SHT31;58088;51.186;17.130;2022-12-11T03:30:41;1.69;77.88
70534;SHT31;58088;51.186;17.130;2022-12-11T03:33:44;1.67;77.94
70534;SHT31;58088;51.186;17.130;2022-12-11T03:36:08;1.66;77.98
70534;SHT31;58088;51.186;17.130;2022-12-11T03:38:45;1.63;77.99
70534;SHT31;58088;51.186;17.130;2022-12-11T03:41:21;1.60;78.00
70534;SHT31;58088;51.186;17.130;2022-12-11T03:43:52;1.58;78.02
70534;SHT31;58088;51.186;17.130;2022-12-11T03:46:24;1.55;78.08
70534;SHT31;58088;51.186;17.130;2022-12-11T03:48:59;1.53;78.07
70534;SHT31;58088;51.186;17.130;2022-12-11T03:51:31;1.51;78.04
70534;SHT31;58088;51.186;17.130;2022-12-11T03:54:00;1.49;78.09
70534;SHT31;58088;51.186;17.130;2022-12-11T03:56:30;1.48;78.15
70534;SHT31;58088;51.186;17.130;2022-12-11T03:59:01;1.47;78.14
70534;SHT31;58088;51.186;17.130;2022-12-11T04:01:28;1.46;78.12
70534;SHT31;58088;51.186;17.130;2022-12-11T04:03:55;1.46;78.20
70534;SHT31;58088;51.186;17.130;2022-12-11T04:06:21;1.44;78.20
70534;SHT31;58088;51.186;17.130;2022-12-11T04:08:47;1.45;78.17
70534;SHT31;58088;51.186;17.130;2022-12-11T04:11:13;1.45;78.11
70534;SHT31;58088;51.186;17.130;2022-12-11T04:13:58;1.45;78.10
70534;SHT31;58088;51.186;17.130;2022-12-11T04:16:57;1.44;78.06
70534;SHT31;58088;51.186;17.130;2022-12-11T04:19:25;1.45;78.06
70534;SHT31;58088;51.186;17.130;2022-12-11T04:22:12;1.45;78.00
70534;SHT31;58088;51.186;17.130;2022-12-11T04:25:03;1.43;77.93
70534;SHT31;58088;51.186;17.130;2022-12-11T04:27:36;1.45;77.93
70534;SHT31;58088;51.186;17.130;2022-12-11T04:30:16;1.46;77.90
70534;SHT31;58088;51.186;17.130;2022-12-11T04:32:46;1.47;77.89
70534;SHT31;58088;51.186;17.130;2022-12-11T04:35:13;1.48;77.83
70534;SHT31;58088;51.186;17.130;2022-12-11T04:37:39;1.49;77.78
70534;SHT31;58088;51.186;17.130;2022-12-11T04:40:07;1.47;77.70
70534;SHT31;58088;51.186;17.130;2022-12-11T04:42:37;1.47;77.64
70534;SHT31;58088;51.186;17.130;2022-12-11T04:45:04;1.51;77.60
70534;SHT31;58088;51.186;17.130;2022-12-11T04:47:36;1.53;77.55
70534;SHT31;58088;51.186;17.130;2022-12-11T04:50:05;1.52;77.48
70534;SHT31;58088;51.186;17.130;2022-12-11T04:52:33;1.50;77.45
70534;SHT31;58088;51.186;17.130;2022-12-11T04:55:00;1.51;77.47
70534;SHT31;58088;51.186;17.130;2022-12-11T04:57:28;1.50;77.44
70534;SHT31;58088;51.186;17.130;2022-12-11T04:59:54;1.51;77.44
70534;SHT31;58088;51.186;17.130;2022-12-11T05:02:20;1.55;77.40
70534;SHT31;58088;51.186;17.130;2022-12-11T05:04:46;1.58;77.40
70534;SHT31;58088;51.186;17.130;2022-12-11T05:07:12;1.61;77.35
70534;SHT31;58088;51.186;17.130;2022-12-11T05:09:39;1.60;77.29
70534;SHT31;58088;51.186;17.130;2022-12-11T05:12:05;1.60;77.20
70534;SHT31;58088;51.186;17.130;2022-12-11T05:14:31;1.57;77.11
70534;SHT31;58088;51.186;17.130;2022-12-11T05:16:57;1.54;77.03
70534;SHT31;58088;51.186;17.130;2022-12-11T05:19:24;1.52;77.02
70534;SHT31;58088;51.186;17.130;2022-12-11T05:21:51;1.52;77.08
70534;SHT31;58088;51.186;17.130;2022-12-11T05:24:18;1.51;77.01
70534;SHT31;58088;51.186;17.130;2022-12-11T05:26:44;1.49;76.93
70534;SHT31;58088;51.186;17.130;2022-12-11T05:29:10;1.48;76.97
70534;SHT31;58088;51.186;17.130;2022-12-11T05:31:36;1.47;76.91
70534;SHT31;58088;51.186;17.130;2022-12-11T05:34:03;1.43;76.83
70534;SHT31;58088;51.186;17.130;2022-12-11T05:36:30;1.37;76.80
70534;SHT31;58088;51.186;17.130;2022-12-11T05:38:59;1.36;76.77
70534;SHT31;58088;51.186;17.130;2022-12-11T05:41:28;1.33;76.77
70534;SHT31;58088;51.186;17.130;2022-12-11T05:43:57;1.31;76.72
70534;SHT31;58088;51.186;17.130;2022-12-11T05:46:27;1.33;76.77
70534;SHT31;58088;51.186;17.130;2022-12-11T05:48:57;1.33;76.69
70534;SHT31;58088;51.186;17.130;2022-12-11T05:51:26;1.35;76.62
70534;SHT31;58088;51.186;17.130;2022-12-11T05:53:54;1.37;76.69
70534;SHT31;58088;51.186;17.130;2022-12-11T05:56:23;1.38;76.62
70534;SHT31;58088;51.186;17.130;2022-12-11T05:58:56;1.38;76.58
70534;SHT31;58088;51.186;17.130;2022-12-11T06:01:29;1.36;76.49
70534;SHT31;58088;51.186;17.130;2022-12-11T06:03:59;1.35;76.48
70534;SHT31;58088;51.186;17.130;2022-12-11T06:06:27;1.35;76.40
70534;SHT31;58088;51.186;17.130;2022-12-11T06:08:54;1.34;76.40
70534;SHT31;58088;51.186;17.130;2022-12-11T06:11:23;1.32;76.47
70534;SHT31;58088;51.186;17.130;2022-12-11T06:13:52;1.33;76.52
70534;SHT31;58088;51.186;17.130;2022-12-11T06:16:19;1.33;76.49
70534;SHT31;58088;51.186;17.130;2022-12-11T06:18:47;1.31;76.40
70534;SHT31;58088;51.186;17.130;2022-12-11T06:21:14;1.31;76.39
70534;SHT31;58088;51.186;17.130;2022-12-11T06:23:51;1.31;76.38
70534;SHT31;58088;51.186;17.130;2022-12-11T06:26:18;1.30;76.25
70534;SHT31;58088;51.186;17.130;2022-12-11T06:28:47;1.32;76.28
70534;SHT31;58088;51.186;17.130;2022-12-11T06:31:14;1.31;76.23
70534;SHT31;58088;51.186;17.130;2022-12-11T06:33:41;1.28;76.12
70534;SHT31;58088;51.186;17.130;2022-12-11T06:36:09;1.26;76.19
70534;SHT31;58088;51.186;17.130;2022-12-11T06:38:38;1.27;76.21
70534;SHT31;58088;51.186;17.130;2022-12-11T06:41:05;1.28;76.23
70534;SHT31;58088;51.186;17.130;2022-12-11T06:43:34;1.31;76.13
70534;SHT31;58088;51.186;17.130;2022-12-11T06:46:06;1.34;76.10
70534;SHT31;58088;51.186;17.130;2022-12-11T06:48:44;1.33;75.98
70534;SHT31;58088;51.186;17.130;2022-12-11T06:51:13;1.30;75.85
70534;SHT31;58088;51.186;17.130;2022-12-11T06:53:44;1.32;75.92
70534;SHT31;58088;51.186;17.130;2022-12-11T06:56:18;1.32;75.87
70534;SHT31;58088;51.186;17.130;2022-12-11T06:58:45;1.29;75.80
70534;SHT31;58088;51.186;17.130;2022-12-11T07:01:22;1.25;75.77
70534;SHT31;58088;51.186;17.130;2022-12-11T07:03:51;1.21;75.72
70534;SHT31;58088;51.186;17.130;2022-12-11T07:06:20;1.22;75.73
70534;SHT31;58088;51.186;17.130;2022-12-11T07:08:46;1.25;75.80
70534;SHT31;58088;51.186;17.130;2022-12-11T07:11:14;1.27;75.80
70534;SHT31;58088;51.186;17.130;2022-12-11T07:13:42;1.25;75.70
70534;SHT31;58088;51.186;17.130;2022-12-11T07:16:09;1.24;75.60
70534;SHT31;58088;51.186;17.130;2022-12-11T07:18:40;1.23;75.55
70534;SHT31;58088;51.186;17.130;2022-12-11T07:21:11;1.21;75.60
70534;SHT31;58088;51.186;17.130;2022-12-11T07:23:39;1.20;75.64
70534;SHT31;58088;51.186;17.130;2022-12-11T07:26:07;1.19;75.56
70534;SHT31;58088;51.186;17.130;2022-12-11T07:28:37;1.22;75.59
70534;SHT31;58088;51.186;17.130;2022-12-11T07:31:07;1.20;75.50
70534;SHT31;58088;51.186;17.130;2022-12-11T07:33:40;1.21;75.50
70534;SHT31;58088;51.186;17.130;2022-12-11T07:36:09;1.21;75.50
70534;SHT31;58088;51.186;17.130;2022-12-11T07:38:37;1.21;75.44
70534;SHT31;58088;51.186;17.130;2022-12-11T07:41:06;1.21;75.34
70534;SHT31;58088;51.186;17.130;2022-12-11T07:43:36;1.22;75.22
70534;SHT31;58088;51.186;17.130;2022-12-11T07:46:04;1.19;75.12
70534;SHT31;58088;51.186;17.130;2022-12-11T07:48:42;1.18;75.09
70534;SHT31;58088;51.186;17.130;2022-12-11T07:51:16;1.18;75.04
70534;SHT31;58088;51.186;17.130;2022-12-11T07:53:57;1.18;75.08
70534;SHT31;58088;51.186;17.130;2022-12-11T07:56:28;1.18;75.07
70534;SHT31;58088;51.186;17.130;2022-12-11T07:59:00;1.17;75.01
70534;SHT31;58088;51.186;17.130;2022-12-11T08:01:29;1.16;74.99
70534;SHT31;58088;51.186;17.130;2022-12-11T08:04:01;1.14;74.97
70534;SHT31;58088;51.186;17.130;2022-12-11T08:06:31;1.18;74.99
70534;SHT31;58088;51.186;17.130;2022-12-11T08:09:00;1.16;74.99
70534;SHT31;58088;51.186;17.130;2022-12-11T08:11:30;1.16;74.87
70534;SHT31;58088;51.186;17.130;2022-12-11T08:13:56;1.14;74.64
70534;SHT31;58088;51.186;17.130;2022-12-11T08:16:24;1.12;74.54
70534;SHT31;58088;51.186;17.130;2022-12-11T08:18:51;1.14;74.74
70534;SHT31;58088;51.186;17.130;2022-12-11T08:21:19;1.17;74.86
70534;SHT31;58088;51.186;17.130;2022-12-11T08:23:51;1.19;74.79
70534;SHT31;58088;51.186;17.130;2022-12-11T08:26:21;1.22;74.87
70534;SHT31;58088;51.186;17.130;2022-12-11T08:28:53;1.26;74.88
70534;SHT31;58088;51.186;17.130;2022-12-11T08:31:21;1.29;74.71
70534;SHT31;58088;51.186;17.130;2022-12-11T08:33:49;1.32;74.65
70534;SHT31;58088;51.186;17.130;2022-12-11T08:36:18;1.35;74.67
70534;SHT31;58088;51.186;17.130;2022-12-11T08:38:48;1.35;74.54
70534;SHT31;58088;51.186;17.130;2022-12-11T08:41:16;1.35;74.47
70534;SHT31;58088;51.186;17.130;2022-12-11T08:43:52;1.33;74.41
70534;SHT31;58088;51.186;17.130;2022-12-11T08:46:23;1.35;74.32
70534;SHT31;58088;51.186;17.130;2022-12-11T08:48:53;1.35;74.15
70534;SHT31;58088;51.186;17.130;2022-12-11T08:51:23;1.34;74.07
70534;SHT31;58088;51.186;17.130;2022-12-11T08:53:56;1.32;73.99
70534;SHT31;58088;51.186;17.130;2022-12-11T08:56:25;1.28;73.85
70534;SHT31;58088;51.186;17.130;2022-12-11T08:58:52;1.28;73.79
70534;SHT31;58088;51.186;17.130;2022-12-11T09:01:23;1.32;73.78
70534;SHT31;58088;51.186;17.130;2022-12-11T09:03:51;1.33;73.79
70534;SHT31;58088;51.186;17.130;2022-12-11T09:06:20;1.34;73.81
70534;SHT31;58088;51.186;17.130;2022-12-11T09:08:49;1.32;73.82
70534;SHT31;58088;51.186;17.130;2022-12-11T09:11:18;1.34;73.80
70534;SHT31;58088;51.186;17.130;2022-12-11T09:13:49;1.36;73.78
70534;SHT31;58088;51.186;17.130;2022-12-11T09:16:16;1.41;73.79
70534;SHT31;58088;51.186;17.130;2022-12-11T09:18:45;1.42;73.73
70534;SHT31;58088;51.186;17.130;2022-12-11T09:21:14;1.38;73.50
70534;SHT31;58088;51.186;17.130;2022-12-11T09:23:44;1.33;73.39
70534;SHT31;58088;51.186;17.130;2022-12-11T09:26:12;1.34;73.31
70534;SHT31;58088;51.186;17.130;2022-12-11T09:28:41;1.33;73.21
70534;SHT31;58088;51.186;17.130;2022-12-11T09:31:09;1.29;73.12
70534;SHT31;58088;51.186;17.130;2022-12-11T09:33:39;1.25;73.05
70534;SHT31;58088;51.186;17.130;2022-12-11T09:36:06;1.23;73.01
70534;SHT31;58088;51.186;17.130;2022-12-11T09:38:33;1.23;73.07
70534;SHT31;58088;51.186;17.130;2022-12-11T09:41:01;1.27;73.21
70534;SHT31;58088;51.186;17.130;2022-12-11T09:43:45;1.31;73.21
70534;SHT31;58088;51.186;17.130;2022-12-11T09:46:32;1.31;73.11
70534;SHT31;58088;51.186;17.130;2022-12-11T09:49:02;1.29;73.12
70534;SHT31;58088;51.186;17.130;2022-12-11T09:51:41;1.28;73.01
70534;SHT31;58088;51.186;17.130;2022-12-11T09:54:15;1.23;72.83
70534;SHT31;58088;51.186;17.130;2022-12-11T09:56:44;1.22;72.78
70534;SHT31;58088;51.186;17.130;2022-12-11T09:59:36;1.22;72.75
70534;SHT31;58088;51.186;17.130;2022-12-11T10:05:37;1.22;72.65
70534;SHT31;58088;51.186;17.130;2022-12-11T10:08:24;1.22;72.65
70534;SHT31;58088;51.186;17.130;2022-12-11T10:17:24;1.17;72.71
70534;SHT31;58088;51.186;17.130;2022-12-11T10:19:56;1.12;72.77
70534;SHT31;58088;51.186;17.130;2022-12-11T10:22:39;1.09;72.76
70534;SHT31;58088;51.186;17.130;2022-12-11T10:25:06;1.08;72.70
70534;SHT31;58088;51.186;17.130;2022-12-11T10:27:44;1.10;72.80
70534;SHT31;58088;51.186;17.130;2022-12-11T10:30:15;1.08;72.68
70534;SHT31;58088;51.186;17.130;2022-12-11T10:33:13;1.07;72.47
70534;SHT31;58088;51.186;17.130;2022-12-11T10:35:50;1.06;72.35
70534;SHT31;58088;51.186;17.130;2022-12-11T10:40:59;1.09;72.22
70534;SHT31;58088;51.186;17.130;2022-12-11T10:43:35;1.12;72.06
70534;SHT31;58088;51.186;17.130;2022-12-11T10:46:11;1.11;71.96
70534;SHT31;58088;51.186;17.130;2022-12-11T10:48:47;1.09;71.81
70534;SHT31;58088;51.186;17.130;2022-12-11T10:51:45;1.06;71.79
70534;SHT31;58088;51.186;17.130;2022-12-11T10:54:55;1.00;71.69
70534;SHT31;58088;51.186;17.130;2022-12-11T10:57:07;0.97;71.61
70534;SHT31;58088;51.186;17.130;2022-12-11T10:59:45;0.96;71.58
70534;SHT31;58088;51.186;17.130;2022-12-11T11:02:22;0.93;71.52
70534;SHT31;58088;51.186;17.130;2022-12-11T11:05:12;0.96;71.47
70534;SHT31;58088;51.186;17.130;2022-12-11T11:08:02;0.94;71.36
70534;SHT31;58088;51.186;17.130;2022-12-11T11:10:50;0.92;71.30
70534;SHT31;58088;51.186;17.130;2022-12-11T11:13:28;0.90;71.26
70534;SHT31;58088;51.186;17.130;2022-12-11T11:15:57;0.86;71.30
70534;SHT31;58088;51.186;17.130;2022-12-11T11:18:28;0.82;71.31
70534;SHT31;58088;51.186;17.130;2022-12-11T11:20:56;0.78;71.38
70534;SHT31;58088;51.186;17.130;2022-12-11T11:23:25;0.78;71.47
70534;SHT31;58088;51.186;17.130;2022-12-11T11:25:54;0.75;71.51
70534;SHT31;58088;51.186;17.130;2022-12-11T11:28:25;0.73;71.66
70534;SHT31;58088;51.186;17.130;2022-12-11T11:31:15;0.74;71.80
70534;SHT31;58088;51.186;17.130;2022-12-11T11:33:45;0.75;71.80
70534;SHT31;58088;51.186;17.130;2022-12-11T11:36:31;0.81;71.85
70534;SHT31;58088;51.186;17.130;2022-12-11T11:44:49;0.76;71.83
70534;SHT31;58088;51.186;17.130;2022-12-11T11:47:50;0.77;71.84
70534;SHT31;58088;51.186;17.130;2022-12-11T11:50:29;0.75;71.73
70534;SHT31;58088;51.186;17.130;2022-12-11T11:53:02;0.75;71.60
70534;SHT31;58088;51.186;17.130;2022-12-11T11:55:48;0.77;71.57
70534;SHT31;58088;51.186;17.130;2022-12-11T11:58:36;0.80;71.50
70534;SHT31;58088;51.186;17.130;2022-12-11T12:01:13;0.82;71.37
70534;SHT31;58088;51.186;17.130;2022-12-11T12:03:44;0.88;71.27
70534;SHT31;58088;51.186;17.130;2022-12-11T12:08:52;0.91;71.09
70534;SHT31;58088;51.186;17.130;2022-12-11T12:28:04;0.95;70.69
70534;SHT31;58088;51.186;17.130;2022-12-11T12:30:51;0.94;70.66
70534;SHT31;58088;51.186;17.130;2022-12-11T12:33:46;0.89;70.62
70534;SHT31;58088;51.186;17.130;2022-12-11T12:36:58;0.87;70.53
70534;SHT31;58088;51.186;17.130;2022-12-11T12:42:50;0.88;70.54
70534;SHT31;58088;51.186;17.130;2022-12-11T12:48:03;0.92;70.63
70534;SHT31;58088;51.186;17.130;2022-12-11T12:50:35;0.89;70.69
70534;SHT31;58088;51.186;17.130;2022-12-11T12:53:08;0.81;70.65
70534;SHT31;58088;51.186;17.130;2022-12-11T12:55:45;0.82;70.70
70534;SHT31;58088;51.186;17.130;2022-12-11T12:58:38;0.84;70.72
70534;SHT31;58088;51.186;17.130;2022-12-11T13:03:58;0.85;70.79
70534;SHT31;58088;51.186;17.130;2022-12-11T13:06:35;0.85;70.57
70534;SHT31;58088;51.186;17.130;2022-12-11T13:09:23;0.88;70.47
70534;SHT31;58088;51.186;17.130;2022-12-11T13:11:54;0.89;70.43
70534;SHT31;58088;51.186;17.130;2022-12-11T13:14:24;0.90;70.41
70534;SHT31;58088;51.186;17.130;2022-12-11T13:19:50;0.92;70.27
70534;SHT31;58088;51.186;17.130;2022-12-11T13:31:04;0.75;69.90
70534;SHT31;58088;51.186;17.130;2022-12-11T13:33:47;0.70;69.85
70534;SHT31;58088;51.186;17.130;2022-12-11T13:38:46;0.69;69.82
70534;SHT31;58088;51.186;17.130;2022-12-11T13:41:27;0.70;69.89
70534;SHT31;58088;51.186;17.130;2022-12-11T13:43:58;0.72;69.90
70534;SHT31;58088;51.186;17.130;2022-12-11T13:46:27;0.72;69.98
70534;SHT31;58088;51.186;17.130;2022-12-11T13:49:00;0.69;70.02
70534;SHT31;58088;51.186;17.130;2022-12-11T13:51:32;0.69;70.04
70534;SHT31;58088;51.186;17.130;2022-12-11T13:54:16;0.63;69.94
70534;SHT31;58088;51.186;17.130;2022-12-11T13:56:57;0.56;69.89
70534;SHT31;58088;51.186;17.130;2022-12-11T13:59:36;0.52;69.81
70534;SHT31;58088;51.186;17.130;2022-12-11T14:02:20;0.49;69.73
70534;SHT31;58088;51.186;17.130;2022-12-11T14:05:06;0.50;69.78
70534;SHT31;58088;51.186;17.130;2022-12-11T14:07:45;0.50;69.71
70534;SHT31;58088;51.186;17.130;2022-12-11T14:12:51;0.52;69.60
70534;SHT31;58088;51.186;17.130;2022-12-11T14:15:25;0.52;69.60
70534;SHT31;58088;51.186;17.130;2022-12-11T14:17:54;0.55;69.60
70534;SHT31;58088;51.186;17.130;2022-12-11T14:20:29;0.57;69.60
70534;SHT31;58088;51.186;17.130;2022-12-11T14:23:06;0.56;69.60
70534;SHT31;58088;51.186;17.130;2022-12-11T14:25:41;0.55;69.60
70534;SHT31;58088;51.186;17.130;2022-12-11T14:28:16;0.56;69.63
70534;SHT31;58088;51.186;17.130;2022-12-11T14:30:48;0.57;69.70
70534;SHT31;58088;51.186;17.130;2022-12-11T14:33:17;0.58;69.70
70534;SHT31;58088;51.186;17.130;2022-12-11T14:35:49;0.59;69.65
70534;SHT31;58088;51.186;17.130;2022-12-11T14:38:21;0.57;69.65
70534;SHT31;58088;51.186;17.130;2022-12-11T14:40:55;0.57;69.70
70534;SHT31;58088;51.186;17.130;2022-12-11T14:43:36;0.55;69.70
70534;SHT31;58088;51.186;17.130;2022-12-11T14:46:22;0.51;69.68
70534;SHT31;58088;51.186;17.130;2022-12-11T14:49:02;0.50;69.76
70534;SHT31;58088;51.186;17.130;2022-12-11T14:51:52;0.50;69.76
70534;SHT31;58088;51.186;17.130;2022-12-11T14:54:29;0.50;69.80
70534;SHT31;58088;51.186;17.130;2022-12-11T14:56:58;0.49;69.80
70534;SHT31;58088;51.186;17.130;2022-12-11T14:59:31;0.49;69.90
70534;SHT31;58088;51.186;17.130;2022-12-11T15:02:29;0.50;69.95
70534;SHT31;58088;51.186;17.130;2022-12-11T15:07:55;0.50;70.10
70534;SHT31;58088;51.186;17.130;2022-12-11T15:11:00;0.43;70.11
70534;SHT31;58088;51.186;17.130;2022-12-11T15:16:25;0.36;70.33
70534;SHT31;58088;51.186;17.130;2022-12-11T15:18:57;0.34;70.45
70534;SHT31;58088;51.186;17.130;2022-12-11T15:21:29;0.36;70.56
70534;SHT31;58088;51.186;17.130;2022-12-11T15:24:02;0.34;70.59
70534;SHT31;58088;51.186;17.130;2022-12-11T15:26:38;0.37;70.59
70534;SHT31;58088;51.186;17.130;2022-12-11T15:29:30;0.36;70.57
70534;SHT31;58088;51.186;17.130;2022-12-11T15:34:34;0.37;70.43
70534;SHT31;58088;51.186;17.130;2022-12-11T15:37:21;0.33;70.29
70534;SHT31;58088;51.186;17.130;2022-12-11T15:40:03;0.35;70.20
70534;SHT31;58088;51.186;17.130;2022-12-11T15:42:31;0.31;70.11
70534;SHT31;58088;51.186;17.130;2022-12-11T15:45:07;0.29;70.02
70534;SHT31;58088;51.186;17.130;2022-12-11T15:47:43;0.28;69.90
70534;SHT31;58088;51.186;17.130;2022-12-11T15:50:15;0.26;69.89
70534;SHT31;58088;51.186;17.130;2022-12-11T15:52:52;0.25;69.78
70534;SHT31;58088;51.186;17.130;2022-12-11T15:55:21;0.27;69.70
70534;SHT31;58088;51.186;17.130;2022-12-11T15:57:53;0.28;69.69
70534;SHT31;58088;51.186;17.130;2022-12-11T16:00:24;0.26;69.69
70534;SHT31;58088;51.186;17.130;2022-12-11T16:02:53;0.27;69.67
70534;SHT31;58088;51.186;17.130;2022-12-11T16:05:21;0.32;69.63
70534;SHT31;58088;51.186;17.130;2022-12-11T16:07:49;0.31;69.62
70534;SHT31;58088;51.186;17.130;2022-12-11T16:10:24;0.25;69.61
70534;SHT31;58088;51.186;17.130;2022-12-11T16:12:51;0.20;69.67
70534;SHT31;58088;51.186;17.130;2022-12-11T16:15:18;0.17;69.70
70534;SHT31;58088;51.186;17.130;2022-12-11T16:17:44;0.15;69.70
70534;SHT31;58088;51.186;17.130;2022-12-11T16:20:10;0.13;69.77
70534;SHT31;58088;51.186;17.130;2022-12-11T16:22:39;0.08;69.80
70534;SHT31;58088;51.186;17.130;2022-12-11T16:25:06;0.08;69.88
70534;SHT31;58088;51.186;17.130;2022-12-11T16:27:33;0.05;69.96
70534;SHT31;58088;51.186;17.130;2022-12-11T16:30:00;0.04;70.02
70534;SHT31;58088;51.186;17.130;2022-12-11T16:32:27;0.03;70.11
70534;SHT31;58088;51.186;17.130;2022-12-11T16:34:56;0.03;70.17
70534;SHT31;58088;51.186;17.130;2022-12-11T16:37:25;0.01;70.26
70534;SHT31;58088;51.186;17.130;2022-12-11T16:39:56;0.02;70.34
70534;SHT31;58088;51.186;17.130;2022-12-11T16:42:23;-0.00;70.41
70534;SHT31;58088;51.186;17.130;2022-12-11T16:44:54;0.02;70.48
70534;SHT31;58088;51.186;17.130;2022-12-11T16:47:36;0.01;70.60
70534;SHT31;58088;51.186;17.130;2022-12-11T16:50:07;0.01;70.65
70534;SHT31;58088;51.186;17.130;2022-12-11T16:52:37;0.02;70.76
70534;SHT31;58088;51.186;17.130;2022-12-11T16:55:04;-0.00;70.89
70534;SHT31;58088;51.186;17.130;2022-12-11T16:57:36;-0.02;71.04
70534;SHT31;58088;51.186;17.130;2022-12-11T17:00:04;-0.00;71.21
70534;SHT31;58088;51.186;17.130;2022-12-11T17:02:41;-0.00;71.28
70534;SHT31;58088;51.186;17.130;2022-12-11T17:05:09;0.01;71.43
70534;SHT31;58088;51.186;17.130;2022-12-11T17:07:36;0.01;71.44
70534;SHT31;58088;51.186;17.130;2022-12-11T17:10:05;-0.03;71.54
70534;SHT31;58088;51.186;17.130;2022-12-11T17:12:33;-0.02;71.68
70534;SHT31;58088;51.186;17.130;2022-12-11T17:14:59;0.00;71.78
70534;SHT31;58088;51.186;17.130;2022-12-11T17:17:28;0.00;71.81
70534;SHT31;58088;51.186;17.130;2022-12-11T17:19:56;0.04;71.84
70534;SHT31;58088;51.186;17.130;2022-12-11T17:22:26;0.04;71.85
70534;SHT31;58088;51.186;17.130;2022-12-11T17:24:53;0.03;71.90
70534;SHT31;58088;51.186;17.130;2022-12-11T17:27:20;-0.02;72.03
70534;SHT31;58088;51.186;17.130;2022-12-11T17:29:48;-0.05;72.21
70534;SHT31;58088;51.186;17.130;2022-12-11T17:32:18;-0.05;72.32
70534;SHT31;58088;51.186;17.130;2022-12-11T17:34:48;-0.05;72.41
70534;SHT31;58088;51.186;17.130;2022-12-11T17:37:18;-0.03;72.53
70534;SHT31;58088;51.186;17.130;2022-12-11T17:39:52;-0.03;72.61
70534;SHT31;58088;51.186;17.130;2022-12-11T17:42:19;-0.04;72.73
70534;SHT31;58088;51.186;17.130;2022-12-11T17:44:46;-0.02;72.86
70534;SHT31;58088;51.186;17.130;2022-12-11T17:47:12;0.01;72.96